Muskogee, OK

9:59 PM CDT on September 02, 2014 (GMT -0500)
Stigler | Change Station
CLOSE
Current Station
Airport
Location: Stigler,
Elevation: 600 ft
Nearby Weather Stations

Elev 600 ft 35.29 °N, 95.09 °W | Updated 24 minutes ago

Clear
Clear
72 °F
Feels Like 72 °F
N
8
Wind Variable Wind from East

Today
High -- | Low -- °F
--% Chance of Precip.
Yesterday
High -- | Low -- °F
Precip. -- in
6:54 AM 7:47 PM
First Quarter, 57% visible
Pressure 29.98 in
Visibility 10.0 miles
Clouds Clear
Dew Point 66 °F
Humidity 83%
Rainfall 1.10 in
Snow Depth Not available.
UV 0 out of 12
Pollen 9.10 out of 12
Air Quality Not available.
Flu Activity Not available.
METAR KGZL 030235Z AUTO 10007KT 10SM CLR 22/19 A2998 RMK AO2

More Conditions Fewer Conditions

Pressure 29.98 in
Visibility 10.0 miles
Clouds Clear
Dew Point 66 °F
Humidity 83%
Rainfall 1.10 in
Snow Depth Not available.
UV 0 out of 12
Pollen 9.10 out of 12
Air Quality Not available.
Flu Activity Not available.
METAR KGZL 030235Z AUTO 10007KT 10SM CLR 22/19 A2998 RMK AO2

More Conditions Fewer Conditions

10-Day Weather Forecast

Almanac

Astronomy

Sep. 02, 2014 Rise Set
Actual Time 6:54 AM CDT 7:47 PM CDT
Civil Twilight 6:28 AM CDT 8:13 PM CDT
Nautical Twilight 5:57 AM CDT 8:44 PM CDT
Astronomical Twilight 5:25 AM CDT 9:15 PM CDT
Moon 2:25 PM CDT (9/2) 12:04 AM CDT (9/2)
Length of Visible Light 13h 45m
Length of Day
12h 53m
Tomorrow will be 2m 10s shorter.
First Quarter, 57% of the Moon is Illuminated
Today
First Quarter
Sep 8
Full
Sep 15
Last Quarter
Sep 24
New
Oct 1
First Quarter

Today's Extremes

State Highs State Lows

Community

WunderPhotos

Upload Photos

1,749,845 photos uploaded!

Nearby

Snow Depth

Station Depth Elevation
No new snow has been reported.

Earthquake Activity

City Distance Mag. Time & Date
Jones, Oklahoma 106 miles 3.1 1:49 PM CDT
2014-08-31
Minimum magnitude displayed is 2.5.

Coastal Water Temperatures

Place Temperature
No Stations Reporting

Nearby Weather Stations